sensor_id;sensor_type;location;lat;lon;timestamp;temperature;humidity
22153;DHT22;11242;50.536;12.688;2024-01-10T00:01:18;-12.90;99.90
22153;DHT22;11242;50.536;12.688;2024-01-10T00:03:44;-12.90;99.90
22153;DHT22;11242;50.536;12.688;2024-01-10T00:06:10;-12.90;99.90
22153;DHT22;11242;50.536;12.688;2024-01-10T00:08:36;-12.90;99.90
22153;DHT22;11242;50.536;12.688;2024-01-10T00:11:02;-12.80;99.90
22153;DHT22;11242;50.536;12.688;2024-01-10T00:13:29;-12.80;99.90
22153;DHT22;11242;50.536;12.688;2024-01-10T00:15:54;-12.70;99.90
22153;DHT22;11242;50.536;12.688;2024-01-10T00:18:21;-12.70;99.90
22153;DHT22;11242;50.536;12.688;2024-01-10T00:20:46;-12.70;99.90
22153;DHT22;11242;50.536;12.688;2024-01-10T00:23:13;-12.60;99.90
22153;DHT22;11242;50.536;12.688;2024-01-10T00:25:38;-12.60;99.90
22153;DHT22;11242;50.536;12.688;2024-01-10T00:28:05;-12.60;99.90
22153;DHT22;11242;50.536;12.688;2024-01-10T00:30:30;-12.70;99.90
22153;DHT22;11242;50.536;12.688;2024-01-10T00:32:56;-12.80;99.90
22153;DHT22;11242;50.536;12.688;2024-01-10T00:35:22;-12.90;99.90
22153;DHT22;11242;50.536;12.688;2024-01-10T00:37:47;-12.80;99.90
22153;DHT22;11242;50.536;12.688;2024-01-10T00:40:13;-12.80;99.90
22153;DHT22;11242;50.536;12.688;2024-01-10T00:42:38;-12.80;99.90
22153;DHT22;11242;50.536;12.688;2024-01-10T00:45:04;-12.80;99.90
22153;DHT22;11242;50.536;12.688;2024-01-10T00:47:30;-12.80;99.90
22153;DHT22;11242;50.536;12.688;2024-01-10T00:49:56;-12.70;99.90
22153;DHT22;11242;50.536;12.688;2024-01-10T00:52:21;-12.70;99.90
22153;DHT22;11242;50.536;12.688;2024-01-10T00:54:47;-12.80;99.90
22153;DHT22;11242;50.536;12.688;2024-01-10T00:57:13;-12.70;99.90
22153;DHT22;11242;50.536;12.688;2024-01-10T00:59:38;-12.70;99.90
22153;DHT22;11242;50.536;12.688;2024-01-10T01:02:04;-12.60;99.90
22153;DHT22;11242;50.536;12.688;2024-01-10T01:04:29;-12.70;99.90
22153;DHT22;11242;50.536;12.688;2024-01-10T01:06:55;-12.60;99.90
22153;DHT22;11242;50.536;12.688;2024-01-10T01:09:20;-12.60;99.90
22153;DHT22;11242;50.536;12.688;2024-01-10T01:11:46;-12.40;99.90
22153;DHT22;11242;50.536;12.688;2024-01-10T01:14:11;-12.40;99.90
22153;DHT22;11242;50.536;12.688;2024-01-10T01:16:37;-12.30;99.90
22153;DHT22;11242;50.536;12.688;2024-01-10T01:19:02;-12.40;99.90
22153;DHT22;11242;50.536;12.688;2024-01-10T01:21:28;-12.40;99.90
22153;DHT22;11242;50.536;12.688;2024-01-10T01:23:54;-12.40;99.90
22153;DHT22;11242;50.536;12.688;2024-01-10T01:26:20;-12.30;99.90
22153;DHT22;11242;50.536;12.688;2024-01-10T01:28:45;-12.30;99.90
22153;DHT22;11242;50.536;12.688;2024-01-10T01:31:11;-12.30;99.90
22153;DHT22;11242;50.536;12.688;2024-01-10T01:33:36;-12.30;99.90
22153;DHT22;11242;50.536;12.688;2024-01-10T01:36:05;-12.30;99.90
22153;DHT22;11242;50.536;12.688;2024-01-10T01:38:30;-12.30;99.90
22153;DHT22;11242;50.536;12.688;2024-01-10T01:40:56;-12.40;99.90
22153;DHT22;11242;50.536;12.688;2024-01-10T01:43:23;-12.30;99.90
22153;DHT22;11242;50.536;12.688;2024-01-10T01:45:53;-12.30;99.90
22153;DHT22;11242;50.536;12.688;2024-01-10T01:48:20;-12.20;99.90
22153;DHT22;11242;50.536;12.688;2024-01-10T01:50:47;-12.30;99.90
22153;DHT22;11242;50.536;12.688;2024-01-10T01:53:14;-12.20;99.90
22153;DHT22;11242;50.536;12.688;2024-01-10T01:55:41;-12.20;99.90
22153;DHT22;11242;50.536;12.688;2024-01-10T01:58:07;-12.20;99.90
22153;DHT22;11242;50.536;12.688;2024-01-10T02:00:33;-12.10;99.90
22153;DHT22;11242;50.536;12.688;2024-01-10T02:02:59;-12.20;99.90
22153;DHT22;11242;50.536;12.688;2024-01-10T02:05:25;-12.20;99.90
22153;DHT22;11242;50.536;12.688;2024-01-10T02:07:51;-12.20;99.90
22153;DHT22;11242;50.536;12.688;2024-01-10T02:10:18;-12.20;99.90
22153;DHT22;11242;50.536;12.688;2024-01-10T02:12:44;-12.20;99.90
22153;DHT22;11242;50.536;12.688;2024-01-10T02:15:10;-12.20;99.90
22153;DHT22;11242;50.536;12.688;2024-01-10T02:17:36;-12.20;99.90
22153;DHT22;11242;50.536;12.688;2024-01-10T02:20:12;-12.30;99.90
22153;DHT22;11242;50.536;12.688;2024-01-10T02:22:38;-12.40;99.90
22153;DHT22;11242;50.536;12.688;2024-01-10T02:25:13;-12.30;99.90
22153;DHT22;11242;50.536;12.688;2024-01-10T02:27:40;-12.30;99.90
22153;DHT22;11242;50.536;12.688;2024-01-10T02:30:07;-12.40;99.90
22153;DHT22;11242;50.536;12.688;2024-01-10T02:32:33;-12.40;99.90
22153;DHT22;11242;50.536;12.688;2024-01-10T02:34:59;-12.50;99.90
22153;DHT22;11242;50.536;12.688;2024-01-10T02:37:25;-12.40;99.90
22153;DHT22;11242;50.536;12.688;2024-01-10T02:39:51;-12.40;99.90
22153;DHT22;11242;50.536;12.688;2024-01-10T02:42:17;-12.40;99.90
22153;DHT22;11242;50.536;12.688;2024-01-10T02:47:23;-12.30;99.90
22153;DHT22;11242;50.536;12.688;2024-01-10T02:49:49;-12.20;99.90
22153;DHT22;11242;50.536;12.688;2024-01-10T02:52:14;-12.20;99.90
22153;DHT22;11242;50.536;12.688;2024-01-10T02:54:40;-12.10;99.90
22153;DHT22;11242;50.536;12.688;2024-01-10T02:57:06;-12.10;99.90
22153;DHT22;11242;50.536;12.688;2024-01-10T02:59:31;-12.10;99.90
22153;DHT22;11242;50.536;12.688;2024-01-10T03:01:57;-12.00;99.90
22153;DHT22;11242;50.536;12.688;2024-01-10T03:04:22;-12.10;99.90
22153;DHT22;11242;50.536;12.688;2024-01-10T03:06:48;-12.10;99.90
22153;DHT22;11242;50.536;12.688;2024-01-10T03:09:13;-12.10;99.90
22153;DHT22;11242;50.536;12.688;2024-01-10T03:11:39;-12.10;99.90
22153;DHT22;11242;50.536;12.688;2024-01-10T03:14:08;-12.10;99.90
22153;DHT22;11242;50.536;12.688;2024-01-10T03:16:35;-12.10;99.90
22153;DHT22;11242;50.536;12.688;2024-01-10T03:19:01;-12.10;99.90
22153;DHT22;11242;50.536;12.688;2024-01-10T03:21:26;-12.10;99.90
22153;DHT22;11242;50.536;12.688;2024-01-10T03:23:56;-12.10;99.90
22153;DHT22;11242;50.536;12.688;2024-01-10T03:26:23;-12.10;99.90
22153;DHT22;11242;50.536;12.688;2024-01-10T03:28:48;-12.00;99.90
22153;DHT22;11242;50.536;12.688;2024-01-10T03:31:14;-11.90;99.90
22153;DHT22;11242;50.536;12.688;2024-01-10T03:33:40;-11.90;99.90
22153;DHT22;11242;50.536;12.688;2024-01-10T03:36:07;-11.90;99.90
22153;DHT22;11242;50.536;12.688;2024-01-10T03:38:34;-11.90;99.90
22153;DHT22;11242;50.536;12.688;2024-01-10T03:40:59;-11.90;99.90
22153;DHT22;11242;50.536;12.688;2024-01-10T03:43:25;-12.00;99.90
22153;DHT22;11242;50.536;12.688;2024-01-10T03:45:50;-12.00;99.90
22153;DHT22;11242;50.536;12.688;2024-01-10T03:48:16;-12.00;99.90
22153;DHT22;11242;50.536;12.688;2024-01-10T03:50:41;-12.00;99.90
22153;DHT22;11242;50.536;12.688;2024-01-10T03:53:07;-12.00;99.90
22153;DHT22;11242;50.536;12.688;2024-01-10T03:55:32;-12.00;99.90
22153;DHT22;11242;50.536;12.688;2024-01-10T03:57:59;-11.90;99.90
22153;DHT22;11242;50.536;12.688;2024-01-10T04:00:24;-11.90;99.90
22153;DHT22;11242;50.536;12.688;2024-01-10T04:02:51;-11.90;99.90
22153;DHT22;11242;50.536;12.688;2024-01-10T04:05:16;-12.00;99.90
22153;DHT22;11242;50.536;12.688;2024-01-10T04:07:42;-12.00;99.90
22153;DHT22;11242;50.536;12.688;2024-01-10T04:10:09;-11.90;99.90
22153;DHT22;11242;50.536;12.688;2024-01-10T04:12:38;-11.90;99.90
22153;DHT22;11242;50.536;12.688;2024-01-10T04:15:04;-11.90;99.90
22153;DHT22;11242;50.536;12.688;2024-01-10T04:17:30;-11.90;99.90
22153;DHT22;11242;50.536;12.688;2024-01-10T04:19:56;-12.00;99.90
22153;DHT22;11242;50.536;12.688;2024-01-10T04:22:23;-12.00;99.90
22153;DHT22;11242;50.536;12.688;2024-01-10T04:24:48;-12.00;99.90
22153;DHT22;11242;50.536;12.688;2024-01-10T04:27:15;-12.10;99.90
22153;DHT22;11242;50.536;12.688;2024-01-10T04:29:40;-12.10;99.90
22153;DHT22;11242;50.536;12.688;2024-01-10T04:32:06;-12.20;99.90
22153;DHT22;11242;50.536;12.688;2024-01-10T04:34:32;-12.20;99.90
22153;DHT22;11242;50.536;12.688;2024-01-10T04:36:57;-12.10;99.90
22153;DHT22;11242;50.536;12.688;2024-01-10T04:39:23;-12.10;99.90
22153;DHT22;11242;50.536;12.688;2024-01-10T04:41:48;-12.10;99.90
22153;DHT22;11242;50.536;12.688;2024-01-10T04:44:14;-12.10;99.90
22153;DHT22;11242;50.536;12.688;2024-01-10T04:46:39;-12.10;99.90
22153;DHT22;11242;50.536;12.688;2024-01-10T04:49:06;-12.10;99.90
22153;DHT22;11242;50.536;12.688;2024-01-10T04:51:32;-12.10;99.90
22153;DHT22;11242;50.536;12.688;2024-01-10T04:53:58;-12.00;99.90
22153;DHT22;11242;50.536;12.688;2024-01-10T04:56:23;-11.90;99.90
22153;DHT22;11242;50.536;12.688;2024-01-10T04:58:49;-11.80;99.90
22153;DHT22;11242;50.536;12.688;2024-01-10T05:01:15;-11.70;99.90
22153;DHT22;11242;50.536;12.688;2024-01-10T05:03:40;-11.60;99.90
22153;DHT22;11242;50.536;12.688;2024-01-10T05:06:06;-11.60;99.90
22153;DHT22;11242;50.536;12.688;2024-01-10T05:08:32;-11.60;99.90
22153;DHT22;11242;50.536;12.688;2024-01-10T05:10:58;-11.70;99.90
22153;DHT22;11242;50.536;12.688;2024-01-10T05:13:23;-11.70;99.90
22153;DHT22;11242;50.536;12.688;2024-01-10T05:15:49;-11.70;99.90
22153;DHT22;11242;50.536;12.688;2024-01-10T05:18:15;-11.60;99.90
22153;DHT22;11242;50.536;12.688;2024-01-10T05:20:41;-11.80;99.90
22153;DHT22;11242;50.536;12.688;2024-01-10T05:23:07;-11.80;99.90
22153;DHT22;11242;50.536;12.688;2024-01-10T05:25:32;-11.80;99.90
22153;DHT22;11242;50.536;12.688;2024-01-10T05:27:58;-11.70;99.90
22153;DHT22;11242;50.536;12.688;2024-01-10T05:30:24;-11.70;99.90
22153;DHT22;11242;50.536;12.688;2024-01-10T05:32:49;-11.60;99.90
22153;DHT22;11242;50.536;12.688;2024-01-10T05:35:15;-11.50;99.90
22153;DHT22;11242;50.536;12.688;2024-01-10T05:37:41;-11.40;99.90
22153;DHT22;11242;50.536;12.688;2024-01-10T05:40:07;-11.40;99.90
22153;DHT22;11242;50.536;12.688;2024-01-10T05:42:32;-11.40;99.90
22153;DHT22;11242;50.536;12.688;2024-01-10T05:45:01;-11.30;99.90
22153;DHT22;11242;50.536;12.688;2024-01-10T05:47:27;-11.30;99.90
22153;DHT22;11242;50.536;12.688;2024-01-10T05:49:53;-11.30;99.90
22153;DHT22;11242;50.536;12.688;2024-01-10T05:52:19;-11.40;99.90
22153;DHT22;11242;50.536;12.688;2024-01-10T05:54:45;-11.20;99.90
22153;DHT22;11242;50.536;12.688;2024-01-10T05:57:11;-11.10;99.90
22153;DHT22;11242;50.536;12.688;2024-01-10T05:59:36;-11.00;99.90
22153;DHT22;11242;50.536;12.688;2024-01-10T06:02:05;-10.90;99.90
22153;DHT22;11242;50.536;12.688;2024-01-10T06:04:30;-10.70;99.90
22153;DHT22;11242;50.536;12.688;2024-01-10T06:07:00;-10.60;99.90
22153;DHT22;11242;50.536;12.688;2024-01-10T06:09:26;-10.60;99.90
22153;DHT22;11242;50.536;12.688;2024-01-10T06:11:52;-10.70;99.90
22153;DHT22;11242;50.536;12.688;2024-01-10T06:14:18;-10.70;99.90
22153;DHT22;11242;50.536;12.688;2024-01-10T06:16:44;-10.70;99.90
22153;DHT22;11242;50.536;12.688;2024-01-10T06:19:11;-10.60;99.90
22153;DHT22;11242;50.536;12.688;2024-01-10T06:21:37;-10.60;99.90
22153;DHT22;11242;50.536;12.688;2024-01-10T06:24:03;-10.50;99.90
22153;DHT22;11242;50.536;12.688;2024-01-10T06:26:28;-10.50;99.90
22153;DHT22;11242;50.536;12.688;2024-01-10T06:28:54;-10.50;99.90
22153;DHT22;11242;50.536;12.688;2024-01-10T06:31:19;-10.60;99.90
22153;DHT22;11242;50.536;12.688;2024-01-10T06:33:45;-10.50;99.90
22153;DHT22;11242;50.536;12.688;2024-01-10T06:36:11;-10.60;99.90
22153;DHT22;11242;50.536;12.688;2024-01-10T06:38:38;-10.60;99.90
22153;DHT22;11242;50.536;12.688;2024-01-10T06:41:10;-10.60;99.90
22153;DHT22;11242;50.536;12.688;2024-01-10T06:43:36;-10.70;99.90
22153;DHT22;11242;50.536;12.688;2024-01-10T06:46:02;-10.80;99.90
22153;DHT22;11242;50.536;12.688;2024-01-10T06:48:29;-10.90;99.90
22153;DHT22;11242;50.536;12.688;2024-01-10T06:50:55;-10.90;99.90
22153;DHT22;11242;50.536;12.688;2024-01-10T06:53:21;-10.80;99.90
22153;DHT22;11242;50.536;12.688;2024-01-10T06:55:47;-10.70;99.90
22153;DHT22;11242;50.536;12.688;2024-01-10T06:58:12;-10.50;99.90
22153;DHT22;11242;50.536;12.688;2024-01-10T07:00:38;-10.50;99.90
22153;DHT22;11242;50.536;12.688;2024-01-10T07:03:04;-10.60;99.90
22153;DHT22;11242;50.536;12.688;2024-01-10T07:05:29;-10.50;99.90
22153;DHT22;11242;50.536;12.688;2024-01-10T07:07:57;-10.40;99.90
22153;DHT22;11242;50.536;12.688;2024-01-10T07:10:23;-10.30;99.90
22153;DHT22;11242;50.536;12.688;2024-01-10T07:12:53;-10.20;99.90
22153;DHT22;11242;50.536;12.688;2024-01-10T07:15:19;-10.10;99.90
22153;DHT22;11242;50.536;12.688;2024-01-10T07:17:44;-10.20;99.90
22153;DHT22;11242;50.536;12.688;2024-01-10T07:20:10;-10.20;99.90
22153;DHT22;11242;50.536;12.688;2024-01-10T07:22:37;-10.20;99.90
22153;DHT22;11242;50.536;12.688;2024-01-10T07:25:10;-10.20;99.90
22153;DHT22;11242;50.536;12.688;2024-01-10T07:27:35;-10.20;99.90
22153;DHT22;11242;50.536;12.688;2024-01-10T07:30:07;-10.20;99.90
22153;DHT22;11242;50.536;12.688;2024-01-10T07:32:39;-10.20;99.90
22153;DHT22;11242;50.536;12.688;2024-01-10T07:35:06;-10.10;99.90
22153;DHT22;11242;50.536;12.688;2024-01-10T07:37:37;-10.10;99.90
22153;DHT22;11242;50.536;12.688;2024-01-10T07:40:04;-10.00;99.90
22153;DHT22;11242;50.536;12.688;2024-01-10T07:42:37;-10.10;99.90
22153;DHT22;11242;50.536;12.688;2024-01-10T07:45:03;-10.00;99.90
22153;DHT22;11242;50.536;12.688;2024-01-10T07:47:32;-10.10;99.90
22153;DHT22;11242;50.536;12.688;2024-01-10T07:49:59;-10.20;99.90
22153;DHT22;11242;50.536;12.688;2024-01-10T07:52:25;-10.20;99.90
22153;DHT22;11242;50.536;12.688;2024-01-10T07:54:50;-10.30;99.90
22153;DHT22;11242;50.536;12.688;2024-01-10T07:57:16;-10.40;99.90
22153;DHT22;11242;50.536;12.688;2024-01-10T07:59:44;-10.40;99.90
22153;DHT22;11242;50.536;12.688;2024-01-10T08:02:10;-10.30;99.90
22153;DHT22;11242;50.536;12.688;2024-01-10T08:04:35;-10.20;99.90
22153;DHT22;11242;50.536;12.688;2024-01-10T08:07:01;-10.20;99.90
22153;DHT22;11242;50.536;12.688;2024-01-10T08:09:27;-9.90;99.90
22153;DHT22;11242;50.536;12.688;2024-01-10T08:11:52;-8.70;99.90
22153;DHT22;11242;50.536;12.688;2024-01-10T08:14:18;-7.30;99.90
22153;DHT22;11242;50.536;12.688;2024-01-10T08:16:43;-6.90;99.90
22153;DHT22;11242;50.536;12.688;2024-01-10T08:19:10;-6.00;99.90
22153;DHT22;11242;50.536;12.688;2024-01-10T08:21:36;-5.00;99.90
22153;DHT22;11242;50.536;12.688;2024-01-10T08:24:02;-4.30;99.90
22153;DHT22;11242;50.536;12.688;2024-01-10T08:26:28;-4.10;99.90
22153;DHT22;11242;50.536;12.688;2024-01-10T08:28:54;-3.40;99.90
22153;DHT22;11242;50.536;12.688;2024-01-10T08:31:20;-3.00;99.90
22153;DHT22;11242;50.536;12.688;2024-01-10T08:33:45;-3.70;99.90
22153;DHT22;11242;50.536;12.688;2024-01-10T08:36:12;-4.80;99.90
22153;DHT22;11242;50.536;12.688;2024-01-10T08:38:38;-5.40;99.90
22153;DHT22;11242;50.536;12.688;2024-01-10T08:41:04;-3.90;99.90
22153;DHT22;11242;50.536;12.688;2024-01-10T08:43:30;-2.20;99.90
22153;DHT22;11242;50.536;12.688;2024-01-10T08:45:56;-1.50;99.90
22153;DHT22;11242;50.536;12.688;2024-01-10T08:48:23;-0.60;99.90
22153;DHT22;11242;50.536;12.688;2024-01-10T08:50:49;-0.40;99.90
22153;DHT22;11242;50.536;12.688;2024-01-10T08:55:44;0.70;99.90
22153;DHT22;11242;50.536;12.688;2024-01-10T08:58:12;0.30;99.90
22153;DHT22;11242;50.536;12.688;2024-01-10T09:00:37;-1.10;99.90
22153;DHT22;11242;50.536;12.688;2024-01-10T09:03:03;-2.20;99.90
22153;DHT22;11242;50.536;12.688;2024-01-10T09:05:29;-3.90;99.90
22153;DHT22;11242;50.536;12.688;2024-01-10T09:07:55;-5.10;99.90
22153;DHT22;11242;50.536;12.688;2024-01-10T09:10:20;-5.90;99.90
22153;DHT22;11242;50.536;12.688;2024-01-10T09:12:51;-6.20;99.90
22153;DHT22;11242;50.536;12.688;2024-01-10T09:15:17;-6.40;99.90
22153;DHT22;11242;50.536;12.688;2024-01-10T09:17:43;-6.60;99.90
22153;DHT22;11242;50.536;12.688;2024-01-10T09:20:09;-6.60;99.90
22153;DHT22;11242;50.536;12.688;2024-01-10T09:22:35;-6.50;99.90
22153;DHT22;11242;50.536;12.688;2024-01-10T09:25:01;-6.40;99.90
22153;DHT22;11242;50.536;12.688;2024-01-10T09:27:35;-6.30;99.90
22153;DHT22;11242;50.536;12.688;2024-01-10T09:30:02;-6.20;99.90
22153;DHT22;11242;50.536;12.688;2024-01-10T09:32:28;-6.10;99.90
22153;DHT22;11242;50.536;12.688;2024-01-10T09:34:55;-5.90;99.90
22153;DHT22;11242;50.536;12.688;2024-01-10T09:37:21;-5.70;99.90
22153;DHT22;11242;50.536;12.688;2024-01-10T09:39:46;-5.60;99.90
22153;DHT22;11242;50.536;12.688;2024-01-10T09:42:12;-5.50;99.90
22153;DHT22;11242;50.536;12.688;2024-01-10T09:44:40;-5.40;99.90
22153;DHT22;11242;50.536;12.688;2024-01-10T09:47:06;-5.30;99.90
22153;DHT22;11242;50.536;12.688;2024-01-10T09:49:31;-5.20;99.90
22153;DHT22;11242;50.536;12.688;2024-01-10T09:51:59;-5.00;99.90
22153;DHT22;11242;50.536;12.688;2024-01-10T09:54:30;-5.00;99.90
22153;DHT22;11242;50.536;12.688;2024-01-10T09:56:59;-4.90;99.90
22153;DHT22;11242;50.536;12.688;2024-01-10T09:59:25;-4.80;99.90
22153;DHT22;11242;50.536;12.688;2024-01-10T10:01:53;-4.70;99.90
22153;DHT22;11242;50.536;12.688;2024-01-10T10:04:20;-4.50;99.90
22153;DHT22;11242;50.536;12.688;2024-01-10T10:06:46;-4.40;99.90
22153;DHT22;11242;50.536;12.688;2024-01-10T10:09:12;-4.20;99.90
22153;DHT22;11242;50.536;12.688;2024-01-10T10:11:38;-4.10;99.90
22153;DHT22;11242;50.536;12.688;2024-01-10T10:14:17;-3.90;99.90
22153;DHT22;11242;50.536;12.688;2024-01-10T10:16:43;-3.80;99.90
22153;DHT22;11242;50.536;12.688;2024-01-10T10:19:09;-3.70;99.90
22153;DHT22;11242;50.536;12.688;2024-01-10T10:21:37;-3.60;99.90
22153;DHT22;11242;50.536;12.688;2024-01-10T10:24:03;-3.40;99.90
22153;DHT22;11242;50.536;12.688;2024-01-10T10:26:33;-3.40;99.90
22153;DHT22;11242;50.536;12.688;2024-01-10T10:29:00;-3.30;99.90
22153;DHT22;11242;50.536;12.688;2024-01-10T10:31:25;-3.20;99.90
22153;DHT22;11242;50.536;12.688;2024-01-10T10:33:52;-2.90;99.90
22153;DHT22;11242;50.536;12.688;2024-01-10T10:36:18;-2.90;99.90
22153;DHT22;11242;50.536;12.688;2024-01-10T10:38:44;-2.70;99.90
22153;DHT22;11242;50.536;12.688;2024-01-10T10:41:10;-2.70;99.90
22153;DHT22;11242;50.536;12.688;2024-01-10T10:43:39;-2.60;99.90
22153;DHT22;11242;50.536;12.688;2024-01-10T10:46:05;-2.60;99.90
22153;DHT22;11242;50.536;12.688;2024-01-10T10:48:35;-2.60;99.90
22153;DHT22;11242;50.536;12.688;2024-01-10T10:51:06;-2.60;99.90
22153;DHT22;11242;50.536;12.688;2024-01-10T10:53:38;-2.60;99.90
22153;DHT22;11242;50.536;12.688;2024-01-10T10:56:06;-2.50;99.90
22153;DHT22;11242;50.536;12.688;2024-01-10T10:58:42;-2.50;99.90
22153;DHT22;11242;50.536;12.688;2024-01-10T11:01:09;-2.50;99.90
22153;DHT22;11242;50.536;12.688;2024-01-10T11:03:37;-2.40;99.90
22153;DHT22;11242;50.536;12.688;2024-01-10T11:06:04;-2.40;99.90
22153;DHT22;11242;50.536;12.688;2024-01-10T11:08:36;-2.30;99.90
22153;DHT22;11242;50.536;12.688;2024-01-10T11:11:05;-2.30;99.90
22153;DHT22;11242;50.536;12.688;2024-01-10T11:13:50;-2.20;99.90
22153;DHT22;11242;50.536;12.688;2024-01-10T11:16:24;-2.20;99.90
22153;DHT22;11242;50.536;12.688;2024-01-10T11:24:57;-2.00;99.90
22153;DHT22;11242;50.536;12.688;2024-01-10T11:27:23;-1.80;99.90
22153;DHT22;11242;50.536;12.688;2024-01-10T11:29:48;-1.70;99.90
22153;DHT22;11242;50.536;12.688;2024-01-10T11:32:15;-1.70;99.90
22153;DHT22;11242;50.536;12.688;2024-01-10T11:35:00;-1.60;99.90
22153;DHT22;11242;50.536;12.688;2024-01-10T11:37:38;-1.50;99.90
22153;DHT22;11242;50.536;12.688;2024-01-10T11:40:08;-1.40;99.90
22153;DHT22;11242;50.536;12.688;2024-01-10T11:42:44;-1.40;99.90
22153;DHT22;11242;50.536;12.688;2024-01-10T11:47:59;-1.40;99.90
22153;DHT22;11242;50.536;12.688;2024-01-10T11:50:25;-1.30;99.90
22153;DHT22;11242;50.536;12.688;2024-01-10T11:52:54;-1.30;99.90
22153;DHT22;11242;50.536;12.688;2024-01-10T11:55:50;-1.40;99.90
22153;DHT22;11242;50.536;12.688;2024-01-10T11:58:17;-1.40;99.90
22153;DHT22;11242;50.536;12.688;2024-01-10T12:00:43;-1.40;99.90
22153;DHT22;11242;50.536;12.688;2024-01-10T12:03:11;-1.30;99.90
22153;DHT22;11242;50.536;12.688;2024-01-10T12:05:36;-1.30;99.90
22153;DHT22;11242;50.536;12.688;2024-01-10T12:08:07;-1.30;99.90
22153;DHT22;11242;50.536;12.688;2024-01-10T12:10:45;-1.30;99.90
22153;DHT22;11242;50.536;12.688;2024-01-10T12:13:10;-1.20;99.90
22153;DHT22;11242;50.536;12.688;2024-01-10T12:15:36;-1.20;99.90
22153;DHT22;11242;50.536;12.688;2024-01-10T12:18:02;-1.20;99.90
22153;DHT22;11242;50.536;12.688;2024-01-10T12:20:27;-1.00;99.90
22153;DHT22;11242;50.536;12.688;2024-01-10T12:22:54;-0.90;99.90
22153;DHT22;11242;50.536;12.688;2024-01-10T12:25:19;-0.90;99.90
22153;DHT22;11242;50.536;12.688;2024-01-10T12:27:45;-0.90;99.90
22153;DHT22;11242;50.536;12.688;2024-01-10T12:30:10;-1.00;99.90
22153;DHT22;11242;50.536;12.688;2024-01-10T12:32:36;-1.00;99.90
22153;DHT22;11242;50.536;12.688;2024-01-10T12:35:03;-1.10;99.90
22153;DHT22;11242;50.536;12.688;2024-01-10T12:37:29;-1.10;99.90
22153;DHT22;11242;50.536;12.688;2024-01-10T12:39:55;-1.00;99.90
22153;DHT22;11242;50.536;12.688;2024-01-10T12:42:21;-0.90;99.90
22153;DHT22;11242;50.536;12.688;2024-01-10T12:44:47;-0.90;99.90
22153;DHT22;11242;50.536;12.688;2024-01-10T12:47:19;-1.00;99.90
22153;DHT22;11242;50.536;12.688;2024-01-10T12:49:45;-1.00;99.90
22153;DHT22;11242;50.536;12.688;2024-01-10T12:52:12;-0.90;99.90
22153;DHT22;11242;50.536;12.688;2024-01-10T12:54:41;-0.80;99.90
22153;DHT22;11242;50.536;12.688;2024-01-10T12:57:07;-0.70;99.90
22153;DHT22;11242;50.536;12.688;2024-01-10T12:59:33;-0.60;99.90
22153;DHT22;11242;50.536;12.688;2024-01-10T13:01:59;-0.50;99.90
22153;DHT22;11242;50.536;12.688;2024-01-10T13:04:25;-0.50;99.90
22153;DHT22;11242;50.536;12.688;2024-01-10T13:06:50;-0.50;99.90
22153;DHT22;11242;50.536;12.688;2024-01-10T13:09:16;-0.50;99.90
22153;DHT22;11242;50.536;12.688;2024-01-10T13:11:42;-0.50;99.90
22153;DHT22;11242;50.536;12.688;2024-01-10T13:14:08;-0.50;99.90
22153;DHT22;11242;50.536;12.688;2024-01-10T13:16:35;-0.60;99.90
22153;DHT22;11242;50.536;12.688;2024-01-10T13:19:00;-0.60;99.90
22153;DHT22;11242;50.536;12.688;2024-01-10T13:21:26;-0.60;99.90
22153;DHT22;11242;50.536;12.688;2024-01-10T13:23:51;-0.40;99.90
22153;DHT22;11242;50.536;12.688;2024-01-10T13:26:17;-0.50;99.90
22153;DHT22;11242;50.536;12.688;2024-01-10T13:28:43;-0.50;99.90
22153;DHT22;11242;50.536;12.688;2024-01-10T13:31:09;-0.50;99.90
22153;DHT22;11242;50.536;12.688;2024-01-10T13:33:35;-0.50;99.90
22153;DHT22;11242;50.536;12.688;2024-01-10T13:36:00;-0.60;99.90
22153;DHT22;11242;50.536;12.688;2024-01-10T13:38:26;-0.70;99.90
22153;DHT22;11242;50.536;12.688;2024-01-10T13:40:52;-0.70;99.90
22153;DHT22;11242;50.536;12.688;2024-01-10T13:43:18;-0.70;99.90
22153;DHT22;11242;50.536;12.688;2024-01-10T13:45:43;-0.80;99.90
22153;DHT22;11242;50.536;12.688;2024-01-10T13:48:09;-0.80;99.90
22153;DHT22;11242;50.536;12.688;2024-01-10T13:50:36;-0.90;99.90
22153;DHT22;11242;50.536;12.688;2024-01-10T13:53:01;-0.90;99.90
22153;DHT22;11242;50.536;12.688;2024-01-10T13:55:29;-0.90;99.90
22153;DHT22;11242;50.536;12.688;2024-01-10T13:57:55;-0.90;99.90
22153;DHT22;11242;50.536;12.688;2024-01-10T14:00:22;-0.90;99.90
22153;DHT22;11242;50.536;12.688;2024-01-10T14:02:47;-0.90;99.90
22153;DHT22;11242;50.536;12.688;2024-01-10T14:05:13;-0.90;99.90
22153;DHT22;11242;50.536;12.688;2024-01-10T14:07:39;-0.90;99.90
22153;DHT22;11242;50.536;12.688;2024-01-10T14:10:05;-0.70;99.90
22153;DHT22;11242;50.536;12.688;2024-01-10T14:12:31;-0.70;99.90
22153;DHT22;11242;50.536;12.688;2024-01-10T14:14:57;-0.70;99.90
22153;DHT22;11242;50.536;12.688;2024-01-10T14:17:23;-0.70;99.90
22153;DHT22;11242;50.536;12.688;2024-01-10T14:19:51;-0.80;99.90
22153;DHT22;11242;50.536;12.688;2024-01-10T14:22:17;-1.00;99.90
22153;DHT22;11242;50.536;12.688;2024-01-10T14:24:44;-1.30;99.90
22153;DHT22;11242;50.536;12.688;2024-01-10T14:27:09;-1.70;99.90
22153;DHT22;11242;50.536;12.688;2024-01-10T14:29:35;-1.90;99.90
22153;DHT22;11242;50.536;12.688;2024-01-10T14:32:00;-2.20;99.90
22153;DHT22;11242;50.536;12.688;2024-01-10T14:34:26;-2.30;99.90
22153;DHT22;11242;50.536;12.688;2024-01-10T14:36:51;-2.50;99.90
22153;DHT22;11242;50.536;12.688;2024-01-10T14:39:17;-2.60;99.90
22153;DHT22;11242;50.536;12.688;2024-01-10T14:41:43;-2.80;99.90
22153;DHT22;11242;50.536;12.688;2024-01-10T14:44:10;-3.00;99.90
22153;DHT22;11242;50.536;12.688;2024-01-10T14:46:35;-3.10;99.90
22153;DHT22;11242;50.536;12.688;2024-01-10T14:49:01;-3.20;99.90
22153;DHT22;11242;50.536;12.688;2024-01-10T14:51:27;-3.40;99.90
22153;DHT22;11242;50.536;12.688;2024-01-10T14:53:52;-3.50;99.90
22153;DHT22;11242;50.536;12.688;2024-01-10T14:56:18;-3.60;99.90
22153;DHT22;11242;50.536;12.688;2024-01-10T14:58:44;-3.70;99.90
22153;DHT22;11242;50.536;12.688;2024-01-10T15:01:10;-3.70;99.90
22153;DHT22;11242;50.536;12.688;2024-01-10T15:03:36;-3.80;99.90
22153;DHT22;11242;50.536;12.688;2024-01-10T15:06:04;-4.00;99.90
22153;DHT22;11242;50.536;12.688;2024-01-10T15:08:30;-4.10;99.90
22153;DHT22;11242;50.536;12.688;2024-01-10T15:10:56;-4.20;99.90
22153;DHT22;11242;50.536;12.688;2024-01-10T15:13:21;-4.30;99.90
22153;DHT22;11242;50.536;12.688;2024-01-10T15:15:47;-4.40;99.90
22153;DHT22;11242;50.536;12.688;2024-01-10T15:18:12;-4.50;99.90